Time;durP1;ratioP1;P1;durP2;ratioP2;P2;SDS_P1;SDS_P2;PMS_P1;PMS_P2;Temp;Humidity;BMP_temperature;BMP_pressure;BME280_temperature;BME280_humidity;BME280_pressure;Samples;Min_cycle;Max_cycle;Signal;HPM_P1;HPM_P2
2023/03/10 00:01:23;;;;;;;1.90;1.20;;;15.00;25.60;;;;;;4990184;28;20209;-70
2023/03/10 00:03:50;;;;;;;1.83;1.30;;;15.30;24.80;;;;;;4992588;28;20798;-70
2023/03/10 00:06:19;;;;;;;1.80;1.20;;;15.50;24.80;;;;;;4992714;28;20417;-70
2023/03/10 00:08:44;;;;;;;1.90;1.20;;;15.30;25.30;;;;;;4989809;28;20933;-70
2023/03/10 00:11:11;;;;;;;1.80;1.10;;;15.10;25.70;;;;;;4989537;28;20443;-70
2023/03/10 00:13:37;;;;;;;1.70;1.10;;;14.60;26.30;;;;;;4991322;28;20189;-70
2023/03/10 00:16:04;;;;;;;1.80;1.20;;;14.40;26.60;;;;;;4992391;28;21096;-70
2023/03/10 00:18:33;;;;;;;1.80;1.10;;;14.40;26.50;;;;;;4992416;28;20427;-70
2023/03/10 00:20:59;;;;;;;1.80;1.10;;;14.30;27.50;;;;;;4990086;28;21002;-70
2023/03/10 00:23:24;;;;;;;1.80;1.10;;;14.30;27.30;;;;;;4989785;28;20436;-70
2023/03/10 00:25:53;;;;;;;1.70;1.10;;;14.30;26.90;;;;;;4992318;28;20330;-70
2023/03/10 00:28:19;;;;;;;1.80;1.17;;;14.40;27.10;;;;;;4991707;28;20183;-70
2023/03/10 00:30:44;;;;;;;1.77;1.13;;;14.00;27.60;;;;;;4990924;28;20463;-70
2023/03/10 00:33:10;;;;;;;1.70;1.10;;;13.60;28.00;;;;;;4990120;28;20594;-69
2023/03/10 00:35:35;;;;;;;1.80;1.10;;;13.50;28.20;;;;;;4991994;28;20269;-70
2023/03/10 00:38:02;;;;;;;1.73;1.13;;;13.60;28.70;;;;;;4992027;28;20178;-70
2023/03/10 00:40:28;;;;;;;1.90;1.20;;;14.00;27.90;;;;;;4991882;28;20232;-70
2023/03/10 00:42:53;;;;;;;1.80;1.20;;;14.00;27.50;;;;;;4989141;28;20958;-70
2023/03/10 00:45:19;;;;;;;1.80;1.20;;;13.50;29.00;;;;;;4991410;28;20253;-70
2023/03/10 00:47:44;;;;;;;1.90;1.30;;;13.50;28.80;;;;;;4991480;28;20175;-69
2023/03/10 00:50:10;;;;;;;1.80;1.20;;;13.30;28.60;;;;;;4991730;28;20252;-70
2023/03/10 00:52:36;;;;;;;1.90;1.30;;;13.40;28.40;;;;;;4991305;28;20608;-70
2023/03/10 00:55:02;;;;;;;1.80;1.17;;;13.50;27.70;;;;;;4990117;28;20437;-70
2023/03/10 00:57:27;;;;;;;1.80;1.20;;;13.20;28.30;;;;;;4991121;28;20193;-70
2023/03/10 00:59:53;;;;;;;1.80;1.20;;;13.20;28.40;;;;;;4995439;28;20214;-70
2023/03/10 01:02:19;;;;;;;1.70;1.10;;;13.70;28.10;;;;;;4995722;28;20247;-70
2023/03/10 01:04:45;;;;;;;1.70;1.10;;;13.80;28.70;;;;;;4994726;28;20601;-70
2023/03/10 01:07:11;;;;;;;1.80;1.20;;;13.90;28.10;;;;;;5008886;28;20435;-70
2023/03/10 01:09:37;;;;;;;1.70;1.10;;;14.30;27.40;;;;;;4992709;28;20499;-70
2023/03/10 01:12:02;;;;;;;1.80;1.10;;;14.10;28.20;;;;;;4994210;28;20553;-71
2023/03/10 01:14:30;;;;;;;1.80;1.10;;;13.80;28.40;;;;;;4995378;28;20190;-70
2023/03/10 01:16:56;;;;;;;1.70;1.07;;;13.60;28.60;;;;;;4995633;28;20639;-70
2023/03/10 01:19:21;;;;;;;1.90;1.20;;;13.80;29.70;;;;;;4993354;28;20465;-70
2023/03/10 01:21:47;;;;;;;1.70;1.10;;;13.90;28.50;;;;;;4994945;28;20628;-70
2023/03/10 01:24:14;;;;;;;1.80;1.10;;;14.00;28.30;;;;;;5010394;23;20227;-76
2023/03/10 01:26:39;;;;;;;1.80;1.10;;;14.20;28.20;;;;;;4978370;28;20519;-72
2023/03/10 01:29:05;;;;;;;1.80;1.20;;;14.30;29.10;;;;;;4974924;28;20439;-73
2023/03/10 01:31:31;;;;;;;1.80;1.13;;;14.10;29.20;;;;;;4966644;28;20204;-73
2023/03/10 01:33:56;;;;;;;1.80;1.20;;;14.00;29.00;;;;;;4975081;28;20212;-73
2023/03/10 01:36:25;;;;;;;2.50;1.60;;;14.20;28.80;;;;;;4975752;28;20212;-73
2023/03/10 01:38:51;;;;;;;1.70;1.10;;;14.30;28.70;;;;;;4973391;28;20187;-72
2023/03/10 01:41:18;;;;;;;2.57;1.83;;;14.10;29.10;;;;;;4974338;28;20546;-73
2023/03/10 01:43:47;;;;;;;1.80;1.13;;;14.00;29.20;;;;;;4975095;28;20479;-73
2023/03/10 01:46:33;;;;;;;2.63;1.53;;;14.00;29.50;;;;;;4974663;28;20511;-73
2023/03/10 01:49:06;;;;;;;1.70;1.10;;;13.70;30.20;;;;;;4973915;28;20416;-73
2023/03/10 01:51:34;;;;;;;1.70;1.10;;;13.70;31.70;;;;;;4969274;28;20433;-73
2023/03/10 01:54:02;;;;;;;1.70;1.10;;;13.60;31.90;;;;;;4974340;28;20887;-74
2023/03/10 01:56:28;;;;;;;1.80;1.10;;;13.80;30.90;;;;;;4974036;28;20414;-72
2023/03/10 01:58:54;;;;;;;2.00;1.30;;;13.60;31.10;;;;;;4973752;28;20426;-72
2023/03/10 02:01:20;;;;;;;1.90;1.20;;;13.60;31.60;;;;;;4967579;28;20804;-73
2023/03/10 02:04:07;;;;;;;1.90;1.20;;;14.00;30.90;;;;;;4966929;28;20289;-73
2023/03/10 02:06:34;;;;;;;1.70;1.10;;;13.90;32.20;;;;;;4974713;28;20178;-74
2023/03/10 02:09:02;;;;;;;1.80;1.17;;;14.40;33.10;;;;;;4973957;28;20429;-73
2023/03/10 02:11:29;;;;;;;1.80;1.20;;;13.40;35.50;;;;;;4974022;28;21022;-73
2023/03/10 02:13:55;;;;;;;1.80;1.17;;;13.00;37.20;;;;;;4973611;28;20555;-74
2023/03/10 02:16:21;;;;;;;1.80;1.10;;;13.30;40.00;;;;;;4974840;28;20481;-74
2023/03/10 02:18:48;;;;;;;1.83;1.20;;;12.80;40.90;;;;;;4974955;28;20440;-74
2023/03/10 02:21:38;;;;;;;1.80;1.10;;;12.50;42.40;;;;;;4974800;28;20956;-75
2023/03/10 02:24:23;;;;;;;1.77;1.17;;;12.20;45.00;;;;;;4972401;28;20572;-73
2023/03/10 02:26:51;;;;;;;1.83;1.20;;;12.80;44.20;;;;;;4965715;28;20431;-75
2023/03/10 02:29:42;;;;;;;1.80;1.10;;;12.40;45.70;;;;;;4988648;28;20516;-73
2023/03/10 02:32:08;;;;;;;1.80;1.10;;;12.70;45.70;;;;;;4974124;28;20439;-75
2023/03/10 02:34:33;;;;;;;1.70;1.10;;;13.00;44.60;;;;;;4976028;28;20452;-74
2023/03/10 02:36:59;;;;;;;1.80;1.20;;;12.90;45.40;;;;;;4973597;28;20809;-73
2023/03/10 02:39:25;;;;;;;1.70;1.10;;;12.80;45.10;;;;;;4974498;28;20721;-74
2023/03/10 02:41:52;;;;;;;1.80;1.20;;;12.80;44.70;;;;;;4974421;28;20192;-74
2023/03/10 02:44:20;;;;;;;1.80;1.10;;;13.00;44.00;;;;;;4970439;28;20303;-73
2023/03/10 02:46:46;;;;;;;1.80;1.17;;;13.20;45.20;;;;;;4972722;28;20426;-74
2023/03/10 02:49:12;;;;;;;1.70;1.10;;;12.80;47.50;;;;;;4973251;28;20432;-74
2023/03/10 02:51:42;;;;;;;1.70;1.10;;;13.00;44.90;;;;;;4974185;28;20213;-75
2023/03/10 02:54:09;;;;;;;1.70;1.10;;;12.80;45.40;;;;;;4973172;28;20198;-74
2023/03/10 02:56:36;;;;;;;1.70;1.10;;;13.40;44.00;;;;;;4973061;28;20441;-74
2023/03/10 02:59:03;;;;;;;1.80;1.23;;;12.40;45.40;;;;;;4973972;28;20482;-74
2023/03/10 03:01:31;;;;;;;1.70;1.10;;;12.60;45.10;;;;;;4973217;28;20532;-74
2023/03/10 03:03:57;;;;;;;1.70;1.10;;;12.90;44.40;;;;;;4973759;28;20467;-74
2023/03/10 03:06:23;;;;;;;1.90;1.30;;;13.00;42.90;;;;;;4973446;28;20505;-74
2023/03/10 03:08:49;;;;;;;1.80;1.20;;;13.50;42.80;;;;;;4973618;28;20458;-74
2023/03/10 03:11:15;;;;;;;1.70;1.10;;;13.20;41.50;;;;;;4973475;28;20178;-74
2023/03/10 03:13:41;;;;;;;1.80;1.20;;;13.40;41.00;;;;;;4968613;28;20202;-71
2023/03/10 03:16:08;;;;;;;1.70;1.10;;;13.50;40.90;;;;;;4969335;28;20414;-75
2023/03/10 03:18:35;;;;;;;1.80;1.20;;;13.80;40.40;;;;;;4973158;28;20188;-75
2023/03/10 03:21:09;;;;;;;1.80;1.10;;;12.90;40.80;;;;;;4972042;28;20500;-73
2023/03/10 03:23:36;;;;;;;1.80;1.20;;;12.90;40.80;;;;;;4965928;28;20454;-73
2023/03/10 03:26:03;;;;;;;1.80;1.13;;;12.70;42.40;;;;;;4972756;28;20422;-74
2023/03/10 03:28:29;;;;;;;1.70;1.10;;;12.50;41.40;;;;;;4971485;28;20433;-73
2023/03/10 03:30:55;;;;;;;1.80;1.10;;;12.50;42.30;;;;;;4965666;28;20480;-73
2023/03/10 03:33:20;;;;;;;1.80;1.20;;;13.00;42.10;;;;;;4973252;28;20797;-74
2023/03/10 03:35:46;;;;;;;1.80;1.10;;;12.60;42.00;;;;;;4973577;28;20183;-74
2023/03/10 03:38:11;;;;;;;1.73;1.10;;;12.50;43.00;;;;;;4972878;28;20275;-74
2023/03/10 03:40:38;;;;;;;1.73;1.10;;;12.50;42.60;;;;;;4971241;28;20202;-73
2023/03/10 03:43:04;;;;;;;1.80;1.10;;;12.60;42.30;;;;;;4967758;28;20302;-74
2023/03/10 03:45:31;;;;;;;1.70;1.00;;;12.90;42.10;;;;;;4972687;28;20544;-74
2023/03/10 03:47:57;;;;;;;1.80;1.20;;;13.30;42.20;;;;;;4969651;28;20431;-75
2023/03/10 03:50:23;;;;;;;1.80;1.10;;;13.20;40.70;;;;;;4971015;28;20524;-74
2023/03/10 03:52:49;;;;;;;1.90;1.27;;;13.30;40.20;;;;;;4972900;28;20558;-74
2023/03/10 03:55:16;;;;;;;1.80;1.20;;;13.00;39.70;;;;;;4972529;28;20508;-75
2023/03/10 03:57:43;;;;;;;1.90;1.27;;;13.60;39.80;;;;;;4972093;28;20949;-74
2023/03/10 04:00:13;;;;;;;1.70;1.10;;;12.80;39.80;;;;;;4972519;28;20513;-74
2023/03/10 04:02:39;;;;;;;1.90;1.30;;;12.90;39.90;;;;;;4972463;28;20462;-74
2023/03/10 04:05:05;;;;;;;2.53;1.60;;;12.70;39.30;;;;;;4972624;28;20457;-74
2023/03/10 04:07:31;;;;;;;1.80;1.10;;;13.00;39.30;;;;;;4971468;28;20636;-75
2023/03/10 04:09:57;;;;;;;1.70;1.10;;;13.10;39.80;;;;;;4966079;28;20468;-74
2023/03/10 04:12:24;;;;;;;1.70;1.10;;;12.90;40.80;;;;;;4972468;28;20627;-75
2023/03/10 04:14:50;;;;;;;1.80;1.10;;;12.70;43.30;;;;;;4971841;28;20667;-74
2023/03/10 04:17:16;;;;;;;1.77;1.20;;;12.60;43.60;;;;;;4971712;28;20479;-73
2023/03/10 04:19:41;;;;;;;1.80;1.20;;;12.30;44.00;;;;;;4969664;28;20463;-74
2023/03/10 04:22:07;;;;;;;1.83;1.20;;;12.40;45.60;;;;;;4966571;28;20620;-75
2023/03/10 04:24:33;;;;;;;1.80;1.20;;;12.60;46.70;;;;;;4971937;28;20215;-74
2023/03/10 04:26:58;;;;;;;1.70;1.10;;;12.70;47.50;;;;;;4971568;28;20176;-74
2023/03/10 04:29:24;;;;;;;1.80;1.20;;;12.90;45.70;;;;;;4971804;28;20186;-74
2023/03/10 04:31:50;;;;;;;1.80;1.20;;;12.90;44.80;;;;;;4972030;28;20710;-75
2023/03/10 04:34:16;;;;;;;1.83;1.20;;;13.00;43.00;;;;;;4971657;28;20207;-74
2023/03/10 04:36:42;;;;;;;1.80;1.13;;;12.90;43.20;;;;;;4972464;28;20931;-74
2023/03/10 04:39:08;;;;;;;1.80;1.10;;;13.10;41.80;;;;;;4970967;28;20426;-73
2023/03/10 04:41:35;;;;;;;1.80;1.20;;;12.90;42.70;;;;;;4971059;28;20237;-74
2023/03/10 04:44:01;;;;;;;1.70;1.00;;;12.90;41.00;;;;;;4972148;28;20465;-73
2023/03/10 04:46:26;;;;;;;1.80;1.10;;;13.10;40.50;;;;;;4971905;28;20460;-75
2023/03/10 04:48:52;;;;;;;1.80;1.20;;;12.80;40.60;;;;;;4971207;28;20422;-74
2023/03/10 04:51:17;;;;;;;1.77;1.13;;;12.80;40.30;;;;;;4972475;28;20181;-74
2023/03/10 04:53:43;;;;;;;1.90;1.20;;;12.80;39.60;;;;;;4971541;28;20664;-74
2023/03/10 04:56:10;;;;;;;1.70;1.10;;;13.00;39.20;;;;;;4971302;28;20272;-73
2023/03/10 04:58:36;;;;;;;1.90;1.30;;;13.10;37.90;;;;;;4969470;28;20665;-74
2023/03/10 05:01:01;;;;;;;1.90;1.20;;;13.20;38.00;;;;;;4970480;28;20485;-74
2023/03/10 05:03:27;;;;;;;1.80;1.17;;;13.30;37.10;;;;;;4971985;28;20189;-73
2023/03/10 05:05:52;;;;;;;1.70;1.10;;;13.20;35.80;;;;;;4966249;28;20620;-74
2023/03/10 05:08:18;;;;;;;1.80;1.10;;;13.50;36.40;;;;;;4971379;28;20179;-74
2023/03/10 05:10:46;;;;;;;1.70;1.10;;;13.10;35.40;;;;;;4971002;28;20179;-74
2023/03/10 05:13:12;;;;;;;1.90;1.27;;;12.90;35.90;;;;;;4970708;28;20186;-73
2023/03/10 05:15:39;;;;;;;1.80;1.20;;;13.10;38.10;;;;;;4972110;28;20459;-75
2023/03/10 05:18:05;;;;;;;1.83;1.20;;;12.70;37.80;;;;;;4972257;28;20416;-76
2023/03/10 05:20:31;;;;;;;1.80;1.10;;;13.00;40.40;;;;;;4970241;28;20433;-76
2023/03/10 05:22:57;;;;;;;1.80;1.17;;;13.10;41.60;;;;;;4971230;28;20427;-76
2023/03/10 05:25:22;;;;;;;1.80;1.20;;;13.10;39.10;;;;;;4971669;28;20852;-76
2023/03/10 05:27:48;;;;;;;1.80;1.10;;;13.00;38.10;;;;;;4972134;28;20210;-77
2023/03/10 05:30:15;;;;;;;1.80;1.10;;;13.80;38.90;;;;;;4971157;28;20231;-75
2023/03/10 05:32:41;;;;;;;1.90;1.20;;;13.50;36.90;;;;;;4971157;28;20588;-75
2023/03/10 05:35:08;;;;;;;1.80;1.10;;;14.30;36.70;;;;;;4970242;28;21052;-75
2023/03/10 05:37:41;;;;;;;1.70;1.10;;;14.10;36.20;;;;;;4972108;28;20423;-76
2023/03/10 05:40:09;;;;;;;1.70;1.10;;;13.70;36.30;;;;;;4970954;28;21033;-75
2023/03/10 05:42:34;;;;;;;1.80;1.20;;;14.00;36.10;;;;;;4970195;28;20470;-74
2023/03/10 05:45:00;;;;;;;1.80;1.20;;;14.00;36.10;;;;;;4971826;28;20572;-74
2023/03/10 05:47:26;;;;;;;1.80;1.10;;;13.90;36.90;;;;;;4975539;28;20223;-75
2023/03/10 05:49:51;;;;;;;1.80;1.20;;;13.80;37.80;;;;;;4975343;28;20491;-75
2023/03/10 05:52:17;;;;;;;1.80;1.20;;;13.50;39.50;;;;;;4973315;28;20286;-75
2023/03/10 05:54:43;;;;;;;1.80;1.20;;;13.60;41.90;;;;;;4973914;28;20207;-75
2023/03/10 05:57:08;;;;;;;1.80;1.20;;;13.10;41.60;;;;;;4974901;28;20589;-75
2023/03/10 05:59:34;;;;;;;1.80;1.10;;;13.50;41.90;;;;;;4974765;28;20183;-75
2023/03/10 06:01:59;;;;;;;1.70;1.00;;;13.20;41.00;;;;;;4974333;28;20203;-75
2023/03/10 06:04:30;;;;;;;1.97;1.27;;;13.10;41.90;;;;;;4972678;28;20203;-75
2023/03/10 06:06:59;;;;;;;1.70;1.20;;;13.30;42.30;;;;;;4973088;28;20190;-75
2023/03/10 06:09:29;;;;;;;1.70;1.07;;;13.30;41.30;;;;;;4974103;28;20487;-75
2023/03/10 06:11:55;;;;;;;1.70;1.10;;;13.30;41.40;;;;;;4974428;28;20485;-74
2023/03/10 06:14:21;;;;;;;1.70;1.20;;;13.50;40.40;;;;;;4972984;28;20901;-75
2023/03/10 06:16:50;;;;;;;1.70;1.10;;;13.80;42.80;;;;;;4980194;28;20437;-76
2023/03/10 06:19:20;;;;;;;1.80;1.20;;;13.40;43.20;;;;;;4974747;28;20790;-75
2023/03/10 06:21:45;;;;;;;1.80;1.20;;;13.60;43.30;;;;;;4969935;28;20974;-74
2023/03/10 06:24:11;;;;;;;1.70;1.10;;;13.20;43.50;;;;;;4973601;28;20468;-74
2023/03/10 06:26:37;;;;;;;1.80;1.20;;;13.30;42.10;;;;;;4974076;28;20182;-75
2023/03/10 06:29:04;;;;;;;1.70;1.10;;;13.20;43.30;;;;;;4974680;28;20505;-74
2023/03/10 06:31:30;;;;;;;1.70;1.10;;;13.30;42.60;;;;;;4974718;28;20520;-75
2023/03/10 06:33:56;;;;;;;1.77;1.17;;;13.10;44.10;;;;;;4966691;28;21069;-75
2023/03/10 06:36:23;;;;;;;1.80;1.10;;;13.50;43.50;;;;;;4974486;28;20958;-75
2023/03/10 06:38:49;;;;;;;1.70;1.10;;;13.10;44.50;;;;;;4974169;28;20906;-75
2023/03/10 06:41:15;;;;;;;1.80;1.13;;;13.20;43.20;;;;;;4974495;28;20537;-75
2023/03/10 06:43:41;;;;;;;1.70;1.10;;;13.00;41.70;;;;;;4972424;28;20450;-73
2023/03/10 06:46:08;;;;;;;1.83;1.23;;;13.40;40.10;;;;;;4965309;28;20435;-74
2023/03/10 06:48:35;;;;;;;4.10;1.97;;;13.90;38.50;;;;;;4967355;28;20442;-75
2023/03/10 06:51:05;;;;;;;1.80;1.10;;;13.50;38.20;;;;;;4974175;28;20922;-75
2023/03/10 06:53:30;;;;;;;1.87;1.20;;;13.30;39.30;;;;;;4972219;28;20446;-74
2023/03/10 06:55:57;;;;;;;1.90;1.30;;;13.80;37.80;;;;;;4972219;28;20436;-74
2023/03/10 06:58:22;;;;;;;1.80;1.10;;;14.40;36.50;;;;;;4974191;28;20186;-75
2023/03/10 07:00:48;;;;;;;1.80;1.20;;;14.30;36.00;;;;;;4973787;28;20416;-74
2023/03/10 07:03:14;;;;;;;1.80;1.10;;;14.60;35.20;;;;;;4973849;28;20191;-74
2023/03/10 07:05:39;;;;;;;1.80;1.17;;;14.50;35.10;;;;;;4971766;28;20612;-75
2023/03/10 07:08:05;;;;;;;1.80;1.13;;;14.30;35.70;;;;;;4971158;28;20193;-75
2023/03/10 07:10:30;;;;;;;1.80;1.10;;;14.30;36.00;;;;;;4972524;28;20274;-75
2023/03/10 07:12:57;;;;;;;1.90;1.20;;;14.10;35.20;;;;;;4970948;28;20180;-74
2023/03/10 07:15:24;;;;;;;1.77;1.10;;;14.10;35.20;;;;;;4967382;28;20303;-74
2023/03/10 07:17:50;;;;;;;1.90;1.30;;;14.00;34.70;;;;;;4963309;28;20469;-73
2023/03/10 07:20:17;;;;;;;1.73;1.10;;;13.90;34.90;;;;;;4972873;28;20932;-75
2023/03/10 07:22:42;;;;;;;1.90;1.30;;;13.90;34.70;;;;;;4966056;28;20246;-75
2023/03/10 07:25:09;;;;;;;1.80;1.17;;;14.20;35.40;;;;;;4970795;28;20509;-75
2023/03/10 07:27:35;;;;;;;1.80;1.10;;;14.10;33.90;;;;;;4966405;28;20437;-75
2023/03/10 07:30:00;;;;;;;1.80;1.20;;;14.20;33.60;;;;;;4973223;28;20423;-74
2023/03/10 07:32:26;;;;;;;1.80;1.10;;;14.00;33.90;;;;;;4965370;28;20680;-74
2023/03/10 07:34:52;;;;;;;1.90;1.20;;;14.30;33.50;;;;;;4968776;28;20199;-75
2023/03/10 07:37:17;;;;;;;1.87;1.20;;;14.40;33.40;;;;;;4971968;28;20678;-74
2023/03/10 07:39:43;;;;;;;1.77;1.17;;;14.20;33.30;;;;;;4971019;28;20183;-74
2023/03/10 07:42:09;;;;;;;1.80;1.17;;;14.20;33.90;;;;;;4970631;28;20201;-75
2023/03/10 07:44:34;;;;;;;1.80;1.20;;;14.40;33.30;;;;;;4968525;28;20551;-75
2023/03/10 07:47:00;;;;;;;1.80;1.20;;;14.20;33.00;;;;;;4959057;28;20237;-75
2023/03/10 07:49:26;;;;;;;1.80;1.20;;;14.80;31.60;;;;;;4970482;28;20177;-75
2023/03/10 07:51:51;;;;;;;1.80;1.20;;;15.00;31.30;;;;;;4972396;28;20184;-75
2023/03/10 07:54:17;;;;;;;1.87;1.20;;;14.80;31.20;;;;;;4972025;28;20206;-74
2023/03/10 07:56:42;;;;;;;1.80;1.10;;;15.00;30.40;;;;;;4972024;28;20176;-75
2023/03/10 07:59:08;;;;;;;1.80;1.20;;;14.80;30.90;;;;;;4968354;28;20181;-75
2023/03/10 08:01:34;;;;;;;1.80;1.20;;;14.50;32.10;;;;;;4969605;28;20202;-75
2023/03/10 08:03:59;;;;;;;2.00;1.30;;;14.80;31.10;;;;;;4965352;28;20208;-75
2023/03/10 08:06:27;;;;;;;1.80;1.10;;;14.60;32.80;;;;;;4964827;28;20174;-74
2023/03/10 08:08:53;;;;;;;1.90;1.27;;;14.20;33.80;;;;;;4971082;28;20222;-75
2023/03/10 08:11:19;;;;;;;1.90;1.30;;;13.20;37.00;;;;;;4972755;28;20417;-75
2023/03/10 08:13:46;;;;;;;1.87;1.17;;;13.60;37.40;;;;;;4972274;28;20467;-74
2023/03/10 08:16:17;;;;;;;1.90;1.30;;;13.70;35.80;;;;;;4967151;28;20464;-73
2023/03/10 08:18:43;;;;;;;1.80;1.20;;;13.30;36.90;;;;;;4963535;28;20479;-72
2023/03/10 08:21:08;;;;;;;1.80;1.10;;;13.40;36.60;;;;;;4970690;28;20458;-75
2023/03/10 08:23:35;;;;;;;1.80;1.20;;;13.70;36.40;;;;;;4965977;28;20190;-75
2023/03/10 08:26:03;;;;;;;2.00;1.20;;;13.70;35.70;;;;;;4971876;28;20186;-75
2023/03/10 08:28:29;;;;;;;1.90;1.20;;;13.60;35.70;;;;;;4968286;28;20437;-75
2023/03/10 08:30:58;;;;;;;1.80;1.10;;;13.50;35.60;;;;;;4972211;28;20424;-73
2023/03/10 08:33:25;;;;;;;1.87;1.20;;;13.30;35.40;;;;;;4970047;28;20475;-75
2023/03/10 08:35:59;;;;;;;1.70;1.10;;;13.70;34.50;;;;;;4970486;28;20436;-74
2023/03/10 08:38:25;;;;;;;1.87;1.20;;;13.70;34.00;;;;;;4968940;28;20450;-75
2023/03/10 08:40:50;;;;;;;1.77;1.17;;;14.10;33.20;;;;;;4959358;28;20932;-73
2023/03/10 08:43:16;;;;;;;1.80;1.20;;;14.10;32.80;;;;;;4964736;28;20193;-77
2023/03/10 08:45:41;;;;;;;1.70;1.10;;;14.20;33.60;;;;;;4975206;28;20177;-80
2023/03/10 08:48:07;;;;;;;1.80;1.20;;;13.80;33.90;;;;;;4981126;28;20701;-80
2023/03/10 08:50:33;;;;;;;1.80;1.20;;;14.20;32.70;;;;;;4975213;28;20690;-81
2023/03/10 08:52:58;;;;;;;1.80;1.20;;;14.20;32.20;;;;;;4977052;28;20187;-80
2023/03/10 08:55:24;;;;;;;1.80;1.13;;;13.60;33.20;;;;;;4977176;28;20210;-81
2023/03/10 08:57:49;;;;;;;1.80;1.20;;;13.60;33.20;;;;;;4968655;28;20225;-78
2023/03/10 09:00:16;;;;;;;2.00;1.30;;;13.30;33.70;;;;;;4965395;28;20182;-78
2023/03/10 09:02:42;;;;;;;1.83;1.20;;;13.50;34.40;;;;;;4964070;28;20240;-78
2023/03/10 09:05:09;;;;;;;1.80;1.20;;;13.80;32.80;;;;;;4958246;28;20520;-78
2023/03/10 09:07:34;;;;;;;1.70;1.10;;;13.80;32.80;;;;;;4973059;28;20182;-77
2023/03/10 09:10:00;;;;;;;1.80;1.20;;;13.80;32.10;;;;;;4968664;28;20442;-79
2023/03/10 09:12:26;;;;;;;1.80;1.10;;;13.40;33.30;;;;;;4969863;28;20679;-79
2023/03/10 09:14:51;;;;;;;1.80;1.20;;;13.50;33.20;;;;;;4972912;28;20209;-77
2023/03/10 09:17:17;;;;;;;1.70;1.10;;;13.40;32.70;;;;;;4971460;28;20232;-77
2023/03/10 09:19:43;;;;;;;1.80;1.10;;;13.70;33.90;;;;;;4971364;28;20812;-77
2023/03/10 09:22:09;;;;;;;1.70;1.10;;;13.50;32.70;;;;;;4971815;28;20463;-77
2023/03/10 09:24:34;;;;;;;1.80;1.17;;;13.20;33.50;;;;;;4972664;28;20255;-76
2023/03/10 09:27:00;;;;;;;1.80;1.20;;;13.30;33.00;;;;;;4971494;28;20214;-77
2023/03/10 09:29:25;;;;;;;1.80;1.20;;;13.60;32.30;;;;;;4973655;28;20577;-76
2023/03/10 09:31:51;;;;;;;1.70;1.10;;;13.80;32.40;;;;;;4975082;28;20189;-78
2023/03/10 09:34:17;;;;;;;1.77;1.20;;;14.00;31.90;;;;;;4975486;28;20198;-77
2023/03/10 09:36:42;;;;;;;1.80;1.20;;;14.60;32.10;;;;;;4977994;28;20229;-76
2023/03/10 09:39:08;;;;;;;1.80;1.10;;;14.60;30.10;;;;;;4976780;28;20265;-76
2023/03/10 09:42:03;;;;;;;1.80;1.13;;;15.00;29.90;;;;;;4974723;28;20198;-79
2023/03/10 09:44:43;;;;;;;1.90;1.20;;;14.80;29.70;;;;;;4975311;28;20194;-77
2023/03/10 09:47:08;;;;;;;1.80;1.20;;;14.40;32.10;;;;;;4974465;28;20435;-77
2023/03/10 09:50:02;;;;;;;1.80;1.20;;;13.80;34.60;;;;;;4973979;28;20469;-75
2023/03/10 09:52:38;;;;;;;1.80;1.20;;;13.70;34.50;;;;;;4971747;28;20188;-77
2023/03/10 09:55:17;;;;;;;1.83;1.20;;;13.60;34.50;;;;;;4973048;28;20448;-77
2023/03/10 09:57:49;;;;;;;1.80;1.17;;;13.90;33.60;;;;;;4972544;28;20427;-76
2023/03/10 10:00:23;;;;;;;1.70;1.20;;;14.30;33.30;;;;;;4974019;28;20411;-77
2023/03/10 10:02:55;;;;;;;1.80;1.20;;;14.10;33.40;;;;;;4989486;28;20450;-77
2023/03/10 10:05:30;;;;;;;1.77;1.20;;;13.90;34.40;;;;;;4974867;28;20481;-77
2023/03/10 10:07:58;;;;;;;1.83;1.23;;;14.30;33.60;;;;;;4970196;28;20436;-75
2023/03/10 10:10:29;;;;;;;1.90;1.30;;;14.20;32.70;;;;;;4970129;28;20929;-77
2023/03/10 10:13:01;;;;;;;1.70;1.10;;;14.50;32.50;;;;;;4975323;28;20781;-76
2023/03/10 10:15:30;;;;;;;1.80;1.20;;;14.80;30.70;;;;;;4974241;28;20469;-77
2023/03/10 10:18:21;;;;;;;1.80;1.20;;;14.70;30.70;;;;;;4971412;28;20430;-76
2023/03/10 10:21:06;;;;;;;1.80;1.20;;;15.00;30.50;;;;;;4981410;28;20430;-77
2023/03/10 10:23:35;;;;;;;1.80;1.20;;;14.50;32.10;;;;;;4969059;28;20427;-77
2023/03/10 10:26:15;;;;;;;1.70;1.10;;;14.70;31.30;;;;;;4987766;28;20438;-77
2023/03/10 10:28:48;;;;;;;1.77;1.20;;;14.80;30.00;;;;;;4973904;28;20441;-76
2023/03/10 10:31:19;;;;;;;1.90;1.20;;;14.70;30.00;;;;;;4974200;28;20771;-76
2023/03/10 10:34:05;;;;;;;1.80;1.20;;;14.70;30.10;;;;;;4974292;28;20434;-77
2023/03/10 10:36:34;;;;;;;1.77;1.13;;;15.10;30.00;;;;;;4972016;28;20440;-77
2023/03/10 10:39:01;;;;;;;1.80;1.20;;;15.40;29.30;;;;;;4968409;28;20438;-76
2023/03/10 10:41:29;;;;;;;1.73;1.10;;;15.70;28.50;;;;;;4974759;28;20461;-77
2023/03/10 10:44:12;;;;;;;1.80;1.20;;;15.40;29.60;;;;;;4973776;28;20451;-75
2023/03/10 10:46:52;;;;;;;1.80;1.10;;;15.30;29.70;;;;;;4973902;28;20431;-77
2023/03/10 10:49:27;;;;;;;1.80;1.20;;;14.70;30.60;;;;;;4974450;28;20956;-77
2023/03/10 10:51:56;;;;;;;1.90;1.27;;;14.80;30.10;;;;;;4983481;28;20815;-77
2023/03/10 10:54:36;;;;;;;1.80;1.20;;;14.50;29.40;;;;;;4973950;28;20529;-76
2023/03/10 10:57:04;;;;;;;1.90;1.20;;;14.40;30.90;;;;;;4973228;28;20473;-76
2023/03/10 10:59:34;;;;;;;1.80;1.20;;;14.00;31.60;;;;;;4974945;28;20462;-74
2023/03/10 11:02:20;;;;;;;1.80;1.20;;;13.70;32.00;;;;;;4972915;28;20453;-76
2023/03/10 11:04:46;;;;;;;1.80;1.20;;;14.30;30.10;;;;;;4966469;28;20452;-77
2023/03/10 11:07:18;;;;;;;1.80;1.20;;;13.80;32.20;;;;;;4974027;28;20416;-75
2023/03/10 11:09:45;;;;;;;1.73;1.20;;;14.30;31.50;;;;;;4973557;28;20418;-77
2023/03/10 11:12:32;;;;;;;1.90;1.20;;;15.00;30.30;;;;;;4973360;28;21709;-77
2023/03/10 11:15:17;;;;;;;2.00;1.30;;;16.20;28.40;;;;;;4969248;28;20511;-77
2023/03/10 11:18:07;;;;;;;1.90;1.20;;;17.10;26.40;;;;;;4973342;28;20412;-77
2023/03/10 11:20:52;;;;;;;2.00;1.20;;;16.70;27.00;;;;;;4971817;28;20435;-75
2023/03/10 11:23:33;;;;;;;1.90;1.20;;;16.40;27.30;;;;;;4969511;28;20509;-75
2023/03/10 11:26:20;;;;;;;1.83;1.10;;;15.80;28.00;;;;;;4966480;28;20513;-76
2023/03/10 11:29:15;;;;;;;2.20;1.13;;;15.30;29.10;;;;;;4973139;28;20413;-74
2023/03/10 11:32:02;;;;;;;1.90;1.20;;;14.90;29.60;;;;;;4973338;28;20404;-75
2023/03/10 11:34:30;;;;;;;1.90;1.20;;;14.70;30.00;;;;;;4971391;28;20988;-76
2023/03/10 11:37:12;;;;;;;1.97;1.30;;;14.60;31.20;;;;;;4968698;28;20559;-76
2023/03/10 11:39:49;;;;;;;1.90;1.20;;;13.90;31.80;;;;;;4972798;28;20460;-75
2023/03/10 11:42:23;;;;;;;1.80;1.10;;;13.90;30.80;;;;;;4972198;28;20982;-75
2023/03/10 11:45:16;;;;;;;1.80;1.20;;;13.70;32.00;;;;;;4973086;28;20475;-75
2023/03/10 11:48:15;;;;;;;1.80;1.20;;;13.90;32.00;;;;;;4972909;28;20473;-75
2023/03/10 11:50:51;;;;;;;1.70;1.10;;;14.30;31.50;;;;;;4972601;28;20956;-75
2023/03/10 11:53:49;;;;;;;1.90;1.30;;;14.20;31.60;;;;;;4971884;28;20488;-76
2023/03/10 11:56:18;;;;;;;1.80;1.17;;;14.10;32.00;;;;;;4932053;29;20432;-76
2023/03/10 11:59:04;;;;;;;1.93;1.30;;;14.30;31.90;;;;;;4926382;29;20433;-75
2023/03/10 12:01:45;;;;;;;1.90;1.20;;;13.90;31.80;;;;;;4931721;29;20474;-76
2023/03/10 12:04:26;;;;;;;1.90;1.20;;;13.70;33.40;;;;;;4929716;29;20481;-76
2023/03/10 12:06:58;;;;;;;1.90;1.30;;;13.10;33.80;;;;;;4926805;29;20437;-76
2023/03/10 12:09:30;;;;;;;1.90;1.20;;;13.60;34.30;;;;;;4919028;29;20440;-77
2023/03/10 12:11:56;;;;;;;1.70;1.10;;;14.20;34.40;;;;;;4932094;29;20439;-77
2023/03/10 12:14:24;;;;;;;2.00;1.30;;;13.80;34.20;;;;;;4929377;29;20888;-76
2023/03/10 12:16:51;;;;;;;1.90;1.20;;;13.70;33.30;;;;;;4926057;29;20555;-76
2023/03/10 12:19:17;;;;;;;1.80;1.20;;;14.20;32.70;;;;;;4927260;29;20959;-76
2023/03/10 12:21:43;;;;;;;1.70;1.10;;;15.40;34.00;;;;;;4923311;29;20550;-75
2023/03/10 12:24:42;;;;;;;1.90;1.30;;;15.40;30.40;;;;;;4930272;29;20324;-75
2023/03/10 12:27:08;;;;;;;1.83;1.20;;;15.10;30.90;;;;;;4926614;29;20410;-76
2023/03/10 12:29:36;;;;;;;1.80;1.10;;;14.70;31.80;;;;;;4931663;29;20512;-76
2023/03/10 12:32:02;;;;;;;1.80;1.30;;;14.60;31.90;;;;;;4942226;28;20275;-76
2023/03/10 12:34:31;;;;;;;1.90;1.27;;;14.50;31.80;;;;;;4971949;28;20526;-76
2023/03/10 12:37:11;;;;;;;1.80;1.20;;;14.50;31.80;;;;;;4969026;28;20269;-75
2023/03/10 12:39:43;;;;;;;1.90;1.20;;;15.20;30.20;;;;;;4971101;28;20445;-76
2023/03/10 12:42:30;;;;;;;1.80;1.20;;;15.10;30.00;;;;;;4972490;28;20489;-76
2023/03/10 12:45:20;;;;;;;1.87;1.20;;;15.20;30.30;;;;;;4971565;28;20457;-74
2023/03/10 12:48:06;;;;;;;1.90;1.30;;;15.40;29.30;;;;;;4963705;28;20432;-76
2023/03/10 12:50:51;;;;;;;1.90;1.20;;;14.90;30.40;;;;;;4970713;28;20441;-75
2023/03/10 12:53:38;;;;;;;2.00;1.30;;;13.50;34.70;;;;;;4969806;28;20494;-76
2023/03/10 12:56:10;;;;;;;2.00;1.33;;;13.40;33.10;;;;;;4973672;28;20444;-75
2023/03/10 12:59:00;;;;;;;1.90;1.23;;;13.50;34.30;;;;;;4973651;28;20909;-75